Glenmont, Ohio
Current Conditions -  °F | °C
As of 2:35 PM on Tuesday 21 Oct 2014 (Local Time) from K4I3 Reporting Station
Overcast Overcast  
Wind Chill: 44°   Ceiling: 1800
Heat Index: 48°   Visibility: 10mi
Dew Point: 45°   Wind: 9mph
Humidity: 87%   Direction: 340°NNW
Pressure: 29.98"   Gusts: 21mph
Location:  40.52°N, 82.1°W
Report Text: K4I3 211835Z AUTO 34008G18KT 10SM BKN018 OVC028 09/07 A2998 RMK AO2
Loading
Personal Weather Stations






























Interactive Weather Map
Tropical Storm Tracking
New forecast layout! Learn more

10-Day Weather Forecast

Advertisements
Track Severe Weather on mobile